Date,TemperatureHighF,TemperatureAvgF,TemperatureLowF,DewpointHighF,DewpointAvgF,DewpointLowF,HumidityHigh,HumidityAvg,HumidityLow,PressureMaxIn,PressureMinIn,WindSpeedMaxMPH,WindSpeedAvgMPH,GustSpeedMaxMPH,PrecipitationSumIn
2013-1-1,37.6,33.7,23.4,23.8,18.7,7.5,60,54,49,29.47,29.33,5,2,6,0.00
2013-1-2,29.3,22.0,13.3,13.4,7.9,0.2,63,54,50,29.62,29.44,6,1,7,0.00
2013-1-3,28.4,20.1,9.3,12.8,7.1,-2.8,66,56,51,29.65,29.50,4,1,6,0.00
2013-1-4,34.3,25.1,17.8,21.7,14.3,8.7,72,63,57,29.53,29.47,4,1,5,0.00
2013-1-7,41.3,24.5,22.6,31.5,15.9,14.9,72,69,38,29.97,29.83,0,0,0,0.00
2013-1-8,47.1,32.5,20.7,30.5,22.5,14.0,80,67,51,29.89,29.80,6,1,10,0.03
2013-1-9,43.5,35.0,24.1,34.9,27.3,18.4,81,74,62,29.86,29.59,5,1,6,0.00
2013-1-10,46.2,37.4,29.1,30.7,23.3,17.8,72,57,45,30.04,29.65,5,1,6,0.00
2013-1-11,41.3,33.7,27.5,34.6,26.1,18.7,89,74,59,30.01,29.59,2,0,2,0.34
2013-1-12,45.9,41.3,37.4,43.5,39.2,34.2,95,92,88,29.68,29.56,2,0,2,0.06
2013-1-13,45.9,42.6,39.6,44.8,41.5,38.4,97,96,95,29.65,29.53,2,0,2,0.00
2013-1-14,56.7,45.9,34.2,54.6,42.1,28.0,98,87,65,29.80,29.42,4,1,5,0.07
2013-1-15,41.3,34.4,31.8,30.0,28.1,25.6,89,78,68,29.97,29.68,3,0,3,0.17
2013-1-16,33.8,32.3,30.4,31.3,29.1,25.4,93,88,71,29.71,29.30,3,0,3,0.00
2013-1-17,44.8,35.1,29.7,33.0,27.7,18.3,95,75,57,29.59,29.36,5,1,5,0.13
2013-1-18,29.7,23.7,17.4,18.3,8.9,3.9,62,53,46,29.95,29.50,5,1,6,0.00
2013-1-19,45.0,33.8,19.4,28.1,20.6,7.2,71,58,50,29.83,29.42,4,1,6,0.12
2013-1-20,50.4,40.5,27.1,31.1,23.9,7.1,67,52,38,29.50,29.18,8,3,10,0.00
2013-1-21,41.3,26.0,20.1,14.0,9.1,2.2,63,49,42,29.97,29.27,4,1,6,0.99
2013-1-22,22.3,17.8,10.2,11.3,0.5,-9.3,64,46,38,29.62,29.27,8,4,10,0.00
2013-1-23,41.3,11.7,5.9,31.5,-7.4,-11.8,44,39,38,29.97,29.56,6,2,9,0.99
2013-1-24,41.3,11.9,3.4,2.1,-6.5,-13.9,48,41,39,29.97,29.53,7,2,7,0.99
2013-1-25,41.3,16.0,6.1,31.5,-1.3,-11.3,57,45,38,29.97,29.50,4,1,5,0.99
2013-1-26,25.2,17.7,10.9,8.5,2.9,-3.7,58,52,45,29.77,29.47,5,1,8,0.00
2013-1-27,41.3,18.5,5.5,13.2,2.1,-9.2,59,48,41,29.97,29.77,4,1,5,0.99
2013-1-28,32.5,26.2,16.2,28.0,16.4,2.5,83,67,54,29.92,29.47,2,0,4,0.00
2013-1-29,38.5,35.0,32.5,34.1,31.0,28.0,89,85,81,29.65,29.44,2,0,2,0.16
2013-1-30,54.3,44.9,34.3,53.8,43.5,31.4,98,95,89,29.59,28.94,5,0,6,0.00
2013-1-31,58.3,44.0,27.5,57.7,32.0,9.0,98,65,41,29.21,28.59,9,4,16,0.98
2013-2-1,30.9,26.3,21.4,11.3,7.6,2.9,50,44,40,29.62,29.21,7,3,9,0.00
2013-2-2,30.7,23.2,16.5,10.9,6.0,0.7,60,47,42,29.74,29.53,6,2,8,0.00
2013-2-3,34.0,24.1,16.5,18.3,11.7,7.2,68,59,49,29.53,29.27,4,0,4,0.00
2013-2-4,41.3,24.2,19.6,13.2,8.6,3.3,67,51,42,29.97,29.24,6,2,13,2.31
2013-2-5,29.1,25.5,19.9,19.5,14.4,4.8,74,62,51,29.44,29.39,2,0,2,0.00
2013-2-6,37.6,30.1,22.8,24.5,17.7,6.7,80,61,45,29.80,29.36,6,1,8,0.00
2013-2-7,33.8,25.3,19.6,13.5,7.1,2.2,54,45,42,29.95,29.77,2,0,3,0.00
2013-2-8,31.5,28.7,24.3,26.6,20.6,10.0,84,72,54,29.80,29.09,2,1,4,0.00
2013-2-9,31.5,24.8,17.4,20.9,11.3,-0.2,86,58,41,29.74,29.18,9,3,11,0.00
2013-2-10,43.2,24.6,14.9,19.3,5.3,-2.7,54,43,33,29.92,29.74,4,1,4,0.00
2013-2-11,39.9,32.5,21.2,36.3,25.3,7.2,91,75,54,29.80,29.18,2,0,2,0.00
2013-2-12,44.2,38.8,35.4,36.1,25.8,19.7,91,60,49,29.44,29.18,8,3,12,0.21
2013-2-13,47.3,34.3,23.5,28.9,21.3,15.2,75,59,48,29.42,29.21,3,0,4,0.08
2013-2-14,47.3,34.8,26.1,29.5,24.0,18.9,80,66,48,29.50,29.21,4,0,5,0.14
2013-2-15,53.4,37.1,25.3,36.3,27.0,19.5,85,68,49,29.50,29.42,3,0,4,0.11
2013-2-16,41.3,33.6,27.9,31.5,22.2,13.0,80,64,38,29.97,29.21,3,1,6,0.00
2013-2-17,31.3,23.8,14.7,13.0,5.1,-2.9,53,44,35,29.36,29.09,8,4,13,0.00
2013-2-18,35.6,22.6,14.4,13.5,4.0,-2.7,50,44,39,29.68,29.33,8,3,11,0.00
2013-2-19,46.4,33.3,19.4,36.9,22.6,6.5,87,65,50,29.65,29.18,6,1,6,0.33
2013-2-20,36.1,29.5,22.8,26.6,13.2,5.5,68,50,43,29.39,29.15,9,4,10,0.00
2013-2-21,35.2,26.3,21.6,15.5,9.0,5.7,52,47,43,29.74,29.36,8,3,10,0.00
2013-2-22,41.3,30.4,21.2,31.5,16.1,7.7,65,55,38,29.97,29.68,4,0,5,0.00
2013-2-23,37.8,34.7,32.5,34.1,29.1,22.3,88,80,65,29.74,29.39,2,0,4,0.17
2013-3-16,41.3,33.5,29.7,31.5,20.1,15.1,69,58,38,29.97,29.30,5,1,5,0.00
2013-3-17,39.6,31.1,25.5,22.1,16.2,8.8,74,55,41,29.80,29.39,5,1,6,0.00
2013-3-18,35.6,28.5,20.5,22.4,11.5,3.9,74,49,41,29.89,29.56,3,0,4,0.00
2013-3-19,40.5,34.0,29.8,33.8,28.7,22.6,84,81,74,29.56,29.18,3,1,4,0.07
2013-3-22,41.0,35.6,32.7,20.8,17.4,15.9,52,47,43,29.33,29.27,6,3,9,0.00
2013-3-23,50.2,37.5,28.9,26.2,18.4,13.3,54,46,37,29.42,29.30,9,3,11,0.00
2013-3-24,54.9,37.7,26.6,29.7,18.3,10.5,52,45,38,29.44,29.24,5,1,6,0.00
2013-3-25,44.6,38.6,32.7,26.5,22.4,18.6,60,52,48,29.24,28.97,3,0,6,0.00
2013-3-26,51.6,40.9,30.6,30.7,22.9,15.5,57,49,40,29.36,29.09,5,1,6,0.00
2013-3-27,57.9,40.2,27.0,31.1,21.5,14.7,61,48,36,29.44,29.33,6,1,8,0.00
2013-3-28,54.7,42.0,32.4,34.0,25.1,17.9,58,51,43,29.59,29.42,4,1,6,0.00
2013-3-29,57.2,44.7,34.7,34.5,25.6,19.1,59,47,37,29.62,29.53,6,1,6,0.00
2013-3-30,61.9,43.0,28.8,33.3,23.3,15.4,71,48,26,29.97,29.59,5,1,7,0.00
2013-3-31,55.9,42.6,28.9,35.9,25.3,13.9,76,51,40,29.65,29.21,5,1,9,0.17
2013-4-1,63.9,46.3,34.9,44.5,34.3,14.7,87,64,42,29.36,29.09,7,2,9,0.03
2013-4-2,46.0,35.5,29.3,19.0,12.9,8.9,48,39,29,29.53,29.36,7,3,10,0.00
2013-4-3,52.9,37.1,29.8,20.7,11.0,-0.4,42,34,17,29.74,29.50,7,4,10,0.00
2013-4-4,61.9,39.9,24.4,31.1,16.8,6.0,52,39,27,29.83,29.56,5,1,6,0.00
2013-4-5,69.8,48.3,37.0,33.3,19.4,-9.7,55,36,5,29.56,29.21,6,2,7,0.00
2013-4-6,62.6,41.6,32.0,14.2,4.6,-10.7,41,26,5,29.80,29.47,5,1,6,0.00
2013-4-7,57.0,40.9,30.0,36.5,24.6,10.9,72,53,41,29.77,29.50,7,1,8,0.20
2013-4-8,82.6,55.1,37.0,48.9,37.8,30.5,80,56,31,29.56,29.44,4,1,6,0.00
2013-4-9,82.6,62.7,47.1,51.6,41.3,33.1,83,49,25,29.53,29.42,9,2,11,0.00
2013-4-10,79.7,59.2,48.9,56.3,45.3,34.0,85,61,44,29.50,29.33,7,1,7,0.21
2013-4-11,63.0,53.5,45.5,53.0,46.1,36.5,91,76,62,29.56,29.30,2,0,3,0.00
2013-4-12,45.7,41.4,38.1,37.4,33.2,25.1,89,74,48,29.56,29.24,4,1,6,0.46
2013-4-13,57.2,45.5,36.7,40.0,35.0,31.4,89,69,47,29.44,29.24,4,1,6,0.00
2013-4-14,60.4,48.1,39.0,36.1,30.5,21.0,76,52,35,29.71,29.42,6,2,8,0.00
2013-4-15,67.5,47.7,34.2,39.6,28.6,20.8,63,48,36,29.86,29.71,4,1,5,0.00
2013-4-16,65.1,51.4,37.2,50.0,40.9,25.5,84,68,52,29.86,29.62,5,1,12,0.00
2013-4-17,80.8,59.3,46.9,51.1,41.0,28.6,89,55,30,29.80,29.59,5,1,6,0.00
2013-4-18,62.8,51.2,39.0,43.1,36.0,28.3,74,57,44,29.83,29.62,4,1,7,0.00
2013-4-19,72.1,60.2,51.4,61.9,55.4,43.1,94,85,69,29.62,29.18,6,1,11,0.00
2013-4-20,62.8,52.9,44.4,59.3,38.6,22.5,93,63,35,29.74,29.18,6,2,8,0.17
2013-4-21,64.4,45.3,33.1,34.4,22.1,15.6,49,40,28,30.09,29.77,5,1,6,0.25
2013-4-22,63.9,45.2,31.8,36.4,26.9,20.5,69,50,35,30.15,29.98,5,1,6,0.00
2013-4-23,49.1,42.6,36.9,37.1,31.6,23.9,76,65,59,29.98,29.59,2,0,5,0.00
2013-4-24,78.1,54.0,40.6,51.8,41.6,33.9,83,65,40,29.59,29.36,5,1,6,0.00
2013-4-25,75.7,55.9,42.4,47.8,34.2,22.9,85,48,22,29.74,29.39,6,2,8,0.00
2013-4-26,75.6,53.3,35.2,42.8,30.1,22.7,64,43,25,29.92,29.74,4,1,5,0.00
2013-4-27,79.9,56.1,39.9,37.7,25.2,-13.0,49,34,3,29.92,29.80,4,1,5,0.00
2013-4-28,73.4,54.4,38.5,46.1,33.7,25.2,72,47,33,29.83,29.71,4,1,6,0.00
2013-4-29,58.6,53.3,47.7,44.5,37.4,28.0,67,55,42,29.77,29.71,3,0,4,0.00
2013-4-30,74.1,57.3,44.2,44.3,36.6,23.8,75,49,27,29.86,29.71,3,0,4,0.00
2013-5-1,76.6,54.0,36.5,45.4,32.9,23.3,62,46,32,30.01,29.83,3,0,4,0.00
2013-5-2,76.6,53.5,40.5,49.1,38.4,32.7,77,59,34,29.98,29.89,3,1,4,0.00
2013-5-4,75.9,62.0,43.3,48.7,41.1,31.5,78,47,36,29.89,29.74,4,1,4,0.00
2013-5-5,71.4,51.9,36.7,46.5,36.7,29.4,78,58,40,29.80,29.74,3,0,4,0.00
2013-5-6,79.2,56.3,39.6,54.2,43.0,31.5,79,63,42,29.77,29.68,4,0,4,0.00
2013-5-7,68.4,52.2,44.8,52.2,44.2,39.3,86,75,56,29.71,29.65,2,0,2,0.00
2013-5-8,60.1,57.6,41.3,58.0,55.6,31.5,94,92,38,29.97,29.53,1,0,1,0.00
2013-5-9,64.4,57.3,53.2,62.2,55.7,51.8,96,94,91,29.53,29.42,1,0,2,0.66
2013-5-10,79.9,63.9,50.2,65.2,55.5,49.1,98,77,48,29.50,29.42,2,0,4,0.09
2013-5-11,63.3,60.2,41.3,61.4,58.0,31.5,96,92,38,29.97,29.24,3,0,3,0.28
2013-5-12,71.8,59.9,49.8,58.2,48.4,27.6,97,70,36,29.42,29.18,4,1,6,0.09
2013-5-13,58.1,48.1,37.9,33.8,28.6,24.6,66,47,37,29.59,29.42,4,1,5,0.00
2013-5-14,68.9,48.0,35.1,39.4,30.2,23.8,73,52,34,29.59,29.53,4,1,5,0.00
2013-5-15,71.6,51.4,36.1,54.2,40.4,25.4,81,66,53,29.56,29.24,3,0,6,0.00
2013-5-16,88.9,64.8,49.5,57.3,49.6,44.8,92,62,33,29.39,29.24,3,0,4,0.00
2013-5-17,81.7,60.1,48.7,50.2,42.1,35.6,74,53,33,29.71,29.39,3,0,5,0.00
2013-5-18,72.9,56.6,45.1,51.3,43.6,36.5,77,63,45,29.83,29.71,4,0,4,0.00
2013-5-19,57.2,55.9,54.5,55.0,52.4,47.8,95,88,77,29.86,29.68,1,0,2,0.21
2013-5-20,86.2,65.8,55.9,71.9,61.4,54.2,96,87,61,29.68,29.47,3,0,3,0.00
2013-5-21,93.9,72.0,57.6,73.9,64.8,55.5,97,80,51,29.50,29.39,3,0,4,0.00
2013-5-22,83.7,66.0,57.6,72.0,61.7,55.0,93,87,68,29.47,29.39,2,0,2,0.00
2013-5-23,72.0,65.2,61.3,69.2,63.6,59.0,97,95,90,29.44,29.33,3,0,4,0.57
2013-5-24,64.2,56.1,45.0,63.3,54.9,43.9,98,96,88,29.42,29.21,3,1,4,0.36
2013-5-25,48.9,44.5,42.3,47.3,43.2,41.5,97,95,91,29.47,29.36,4,1,6,0.59
2013-5-26,67.8,51.7,42.4,46.3,41.1,35.4,93,69,46,29.68,29.39,4,1,6,0.05
2013-5-27,84.9,58.1,40.3,52.4,41.6,34.9,85,58,31,29.74,29.65,3,1,6,0.00
2013-5-28,67.8,55.7,46.4,54.8,47.6,39.8,93,75,50,29.74,29.65,2,0,2,0.24
2013-5-29,80.2,65.0,56.7,72.1,61.7,54.8,95,90,74,29.68,29.53,2,0,2,0.00
2013-5-30,99.3,75.2,60.4,75.6,65.6,59.0,97,76,40,29.65,29.59,3,0,3,0.00
2013-5-31,100.6,76.5,63.1,72.8,64.9,60.5,93,71,39,29.65,29.53,3,0,3,0.00
2013-6-1,100.2,75.8,61.3,75.0,65.4,58.1,93,73,41,29.56,29.44,4,0,4,0.00
2013-6-2,91.6,74.2,65.5,73.6,67.1,62.8,92,80,55,29.47,29.33,2,0,4,0.00
2013-6-3,73.2,67.7,41.3,68.3,61.9,31.5,92,81,38,29.97,29.36,3,0,3,1.41
2013-6-4,89.2,63.4,52.3,59.3,47.3,42.4,73,57,34,29.65,29.44,4,0,4,0.00
2013-6-5,84.9,61.9,49.5,57.2,46.8,41.0,78,60,39,29.74,29.65,3,0,4,0.00
2013-6-6,69.3,60.0,50.0,58.4,52.0,42.6,91,76,57,29.71,29.59,2,0,3,0.15
2013-6-7,59.7,58.2,41.3,58.7,56.6,31.5,97,94,38,29.97,29.24,1,0,2,2.60
2013-6-8,75.7,63.4,53.8,68.1,59.6,52.9,98,88,72,29.59,29.15,2,0,3,0.25
2013-6-9,90.9,66.8,54.7,65.9,58.0,53.0,96,76,42,29.71,29.59,3,0,4,0.00
2013-6-10,71.2,62.1,58.1,66.1,59.5,54.4,97,91,83,29.71,29.42,2,0,3,1.36
2013-6-11,77.5,66.5,59.0,71.9,63.6,57.7,98,91,74,29.42,29.15,3,1,4,0.32
2013-6-12,81.1,66.0,56.1,59.9,54.1,49.8,81,67,46,29.42,29.21,4,1,5,0.00
2013-6-13,58.8,56.2,52.5,57.1,53.7,48.3,96,92,80,29.39,29.09,1,0,3,1.12
2013-6-14,81.5,59.3,51.1,66.3,55.4,50.3,98,88,60,29.42,29.09,2,0,2,0.41
2013-6-15,91.8,66.4,54.3,63.1,55.1,51.2,96,71,37,29.53,29.42,3,0,4,0.00
2013-6-16,81.0,66.2,52.9,64.5,57.1,48.4,89,74,54,29.53,29.33,2,0,3,0.00
2013-6-17,98.8,71.1,59.5,76.4,63.1,56.6,95,78,47,29.47,29.39,3,0,3,0.05
2013-6-18,80.6,67.0,59.2,72.0,63.0,56.9,95,88,68,29.47,29.39,2,0,2,0.49
2013-6-19,91.4,65.5,55.0,61.3,54.6,47.6,95,72,34,29.71,29.44,2,0,4,0.00
2013-6-20,90.9,65.5,51.4,64.6,53.6,47.1,89,68,42,29.80,29.71,2,0,2,0.00
2013-6-21,93.0,67.9,41.3,67.1,56.3,31.5,89,68,38,29.97,29.77,2,0,3,11.68
2013-6-22,91.9,69.6,55.6,66.4,56.9,50.7,88,66,42,29.80,29.68,3,0,3,0.00
2013-6-23,98.6,73.9,58.5,73.2,63.5,53.0,91,72,43,29.74,29.62,3,0,4,0.00
2013-6-24,98.6,77.5,66.9,76.8,68.5,60.9,93,76,44,29.65,29.50,4,0,6,0.05
2013-6-25,98.2,76.5,64.4,77.3,68.1,62.0,95,77,47,29.56,29.36,3,1,5,0.00
2013-6-26,83.1,74.4,69.1,72.3,68.3,65.4,93,82,69,29.42,29.33,3,0,4,0.04
2013-6-27,84.6,72.8,66.6,76.4,69.3,65.0,96,89,74,29.39,29.18,1,0,2,0.58
2013-6-28,70.9,70.6,70.0,69.7,69.2,68.5,96,96,95,29.18,29.15,1,0,2,0.00
2013-6-29,90.7,77.0,41.3,76.1,68.6,31.5,91,75,38,29.97,29.18,3,0,4,12.39
2013-6-30,81.1,71.6,65.8,76.2,69.3,63.8,96,92,84,29.50,29.30,2,0,3,0.00
2013-7-1,73.8,71.6,70.5,72.5,70.5,69.3,97,97,95,29.62,29.47,3,0,4,1.13
2013-7-2,91.2,74.4,41.3,82.6,72.4,31.5,98,93,38,29.97,29.62,2,0,3,13.52
2013-7-3,89.4,75.4,69.1,80.4,72.3,68.2,97,91,75,29.80,29.74,3,0,3,0.00
2013-7-4,100.4,79.6,72.1,83.1,73.9,69.0,97,84,56,29.80,29.71,3,0,3,0.00
2013-7-5,102.6,80.3,70.2,80.5,72.7,67.7,95,80,47,29.77,29.65,3,0,4,0.00
2013-7-6,101.3,79.8,72.0,79.4,73.0,69.5,94,81,47,29.71,29.59,3,0,3,0.00
2013-7-7,102.0,81.4,71.2,82.1,73.9,69.1,95,80,50,29.62,29.47,2,0,2,0.00
2013-7-8,101.8,77.8,68.7,74.7,68.8,64.9,89,75,41,29.59,29.53,2,0,3,0.12
2013-7-9,94.3,76.1,66.6,77.5,69.8,63.8,93,82,58,29.62,29.56,2,0,2,0.00
2013-7-10,84.7,75.7,70.0,80.1,72.7,68.2,95,91,81,29.59,29.36,2,0,3,0.25
2013-7-11,87.6,74.1,66.9,77.2,71.1,65.1,97,91,69,29.50,29.39,1,0,1,0.13
2013-7-12,77.7,69.6,63.5,70.3,66.1,61.6,95,89,77,29.68,29.47,1,0,1,0.16
2013-7-13,77.0,70.0,63.3,73.8,68.4,61.6,97,95,90,29.83,29.68,1,0,1,0.09
2013-7-14,100.4,79.5,71.6,81.8,74.2,70.7,97,85,55,29.86,29.77,2,0,2,0.00
2013-7-15,103.8,80.8,72.3,80.6,73.3,69.3,93,80,45,29.80,29.68,2,0,3,0.00
2013-7-16,106.2,80.6,71.1,76.3,69.7,66.2,90,72,37,29.74,29.68,2,0,3,0.00
2013-7-17,108.1,81.1,70.0,78.5,71.2,66.4,90,74,38,29.77,29.62,1,0,2,0.00
2013-7-18,107.4,82.5,72.0,80.4,73.6,67.7,94,77,39,29.62,29.53,2,0,2,0.00
2013-7-19,101.7,83.6,72.7,80.8,74.5,70.5,94,76,49,29.53,29.36,3,0,4,0.00
2013-7-20,95.5,81.5,74.3,79.5,73.4,68.4,89,77,53,29.42,29.30,3,0,3,0.00
2013-7-21,74.3,72.0,70.2,68.7,67.7,64.9,89,87,82,29.47,29.42,0,0,0,0.00
2013-7-27,64.4,61.4,41.3,60.1,56.7,31.5,88,81,38,29.97,29.56,1,0,0,17.43
2013-7-28,76.5,67.1,61.9,69.6,63.7,58.9,94,89,78,29.56,29.50,2,0,3,0.00
2013-7-29,72.5,66.1,41.3,60.5,57.8,31.5,82,74,38,29.97,29.59,1,0,0,17.46
2013-7-30,87.4,68.2,57.9,65.9,58.8,54.6,91,74,47,29.71,29.62,2,0,3,0.00
2013-7-31,85.5,68.8,58.6,65.4,60.0,55.7,91,76,49,29.71,29.59,2,0,3,0.00
2013-8-1,73.0,65.3,41.3,68.1,62.8,31.5,97,91,38,29.97,29.39,1,0,2,0.53
2013-8-2,88.5,71.5,64.8,72.0,65.5,61.2,98,83,50,29.47,29.36,3,0,3,0.06
2013-8-3,83.5,67.9,62.2,73.9,63.8,58.3,95,87,69,29.47,29.39,2,0,3,0.11
2013-8-4,84.9,66.3,58.5,65.2,60.1,54.9,95,82,46,29.53,29.39,2,0,3,0.22
2013-8-5,84.6,63.5,54.1,59.7,54.0,50.8,95,74,41,29.62,29.50,2,0,3,0.00
2013-8-6,84.6,65.6,54.3,64.5,56.4,50.6,91,74,48,29.68,29.59,1,0,2,0.00
2013-8-7,76.5,66.6,57.2,65.5,60.7,53.7,93,82,69,29.71,29.62,1,0,2,0.00
2013-8-8,80.1,71.0,67.5,75.3,68.8,65.2,96,93,85,29.62,29.56,1,0,2,0.25
2013-8-9,81.1,73.3,69.8,79.1,72.0,68.7,97,96,90,29.59,29.39,3,0,3,0.53
2013-8-10,84.7,70.9,60.8,70.0,65.1,56.9,98,83,58,29.62,29.42,3,0,3,0.00
2013-8-11,83.1,66.2,41.3,62.8,57.9,31.5,92,76,38,29.97,29.56,3,0,3,0.00
2013-8-12,84.6,69.6,62.8,67.0,62.5,59.1,94,79,50,29.62,29.50,1,0,2,0.00
2013-8-13,76.5,67.9,62.2,70.9,65.4,59.5,96,92,82,29.50,29.30,2,0,2,0.16
2013-8-14,76.6,64.9,55.8,65.1,55.5,49.3,95,73,48,29.59,29.33,4,0,4,0.00
2013-8-15,77.5,61.3,51.1,56.3,51.8,47.5,92,73,46,29.71,29.59,2,0,3,0.00
2013-8-16,81.3,64.0,53.1,60.0,54.6,49.6,91,74,47,29.77,29.68,1,0,2,0.00
2013-8-17,83.1,65.9,54.7,64.3,57.8,51.5,93,77,50,29.83,29.74,2,0,2,0.00
2013-8-18,75.7,65.2,59.0,65.2,60.3,55.9,93,85,67,29.83,29.68,0,0,1,0.00
2013-8-19,76.3,64.9,57.9,66.9,61.3,56.2,96,89,69,29.68,29.56,0,0,0,0.00
2013-8-20,87.1,70.6,60.4,68.0,63.4,59.0,96,80,48,29.68,29.59,2,0,3,0.00
2013-8-21,90.3,71.8,61.3,69.4,64.2,59.3,95,79,48,29.74,29.62,0,0,0,0.00
2013-8-22,74.7,68.0,41.3,72.2,65.8,31.5,97,93,38,29.97,29.42,1,0,0,0.54
2013-8-23,79.7,69.8,61.3,67.5,63.1,56.3,97,81,58,29.68,29.44,2,0,2,0.00
2013-8-24,81.5,64.9,56.5,59.0,54.6,50.4,87,71,45,29.89,29.68,2,0,2,0.00
2013-8-25,82.8,65.2,53.1,61.9,55.7,50.2,94,74,44,29.92,29.77,2,0,3,0.00
2013-8-26,75.6,67.5,61.0,67.5,62.6,56.3,95,84,70,29.77,29.47,2,0,2,0.08
2013-8-27,83.3,72.1,67.5,74.2,68.8,65.8,97,90,71,29.47,29.39,2,0,3,0.42
2013-8-28,83.1,71.0,63.5,74.1,67.7,62.0,97,90,71,29.47,29.42,3,0,4,0.00
2013-8-29,75.7,70.0,66.4,69.8,67.0,63.4,97,90,78,29.62,29.47,1,0,1,0.00
2013-8-30,82.8,70.9,65.1,72.2,66.9,63.0,95,88,68,29.59,29.42,2,0,3,0.00
2013-8-31,82.0,73.7,68.0,76.3,70.7,66.5,96,91,81,29.44,29.36,3,0,3,0.00
2013-9-1,81.9,73.9,69.3,76.5,71.6,68.2,97,93,84,29.44,29.39,1,0,1,0.00
2013-9-2,80.2,72.7,67.6,76.7,71.0,66.8,97,95,87,29.39,29.27,2,0,2,0.20
2013-9-3,75.7,69.4,59.9,71.3,67.0,57.9,98,93,77,29.44,29.30,2,0,3,0.20
2013-9-4,78.6,64.8,55.6,63.5,59.2,54.2,98,83,57,29.56,29.44,3,0,3,0.00
2013-9-5,73.0,63.2,51.4,64.0,54.7,45.3,96,76,49,29.71,29.47,3,0,3,0.00
2013-9-6,69.4,56.4,48.6,50.0,45.9,42.9,83,69,47,29.80,29.68,2,0,3,0.00
2013-9-7,75.9,60.1,46.8,57.2,50.7,42.7,92,73,48,29.68,29.44,2,0,2,0.00
2013-9-8,78.3,65.5,55.8,64.6,55.8,45.7,91,72,46,29.62,29.36,2,0,3,0.00
2013-9-9,70.3,57.7,46.4,51.9,47.4,41.2,86,70,51,29.77,29.62,1,0,2,0.00
2013-9-10,78.6,67.8,56.7,73.7,64.8,51.9,95,91,83,29.71,29.62,2,0,3,0.08
2013-9-11,90.7,76.1,65.8,81.5,71.9,64.7,97,88,70,29.68,29.53,2,0,4,0.00
2013-9-12,82.9,72.8,66.9,76.2,69.8,66.0,97,91,78,29.56,29.27,3,0,3,1.55
2013-9-13,74.3,65.7,56.3,68.6,63.3,51.1,98,92,79,29.39,29.21,2,0,3,0.11
2013-9-14,64.8,56.9,50.2,53.1,50.1,45.8,88,79,64,29.65,29.39,3,0,4,0.00
2013-9-15,67.6,55.4,41.3,53.8,48.7,31.5,94,79,38,29.74,29.62,2,0,2,22.81
2013-9-16,68.4,58.4,52.5,58.8,52.9,45.7,95,83,66,29.77,29.56,3,0,3,0.00
2013-9-17,64.4,52.0,43.3,45.5,40.9,36.0,82,67,48,29.95,29.77,2,0,3,0.00
2013-9-18,70.3,52.0,41.0,53.3,43.9,37.1,93,76,50,29.86,29.71,2,0,2,0.00
2013-9-19,75.6,57.2,44.1,60.1,48.6,40.4,95,75,46,29.74,29.59,1,0,2,0.00
2013-9-20,77.2,59.7,46.9,63.5,52.7,43.6,96,79,52,29.62,29.56,2,0,2,0.00
2013-9-21,69.1,62.1,53.2,67.0,59.6,49.5,95,92,86,29.56,29.24,2,0,3,0.22
2013-9-22,66.9,61.1,50.7,65.7,55.3,42.0,98,82,59,29.44,29.21,3,0,4,0.94
2013-9-23,63.7,52.6,44.1,45.2,41.7,38.3,82,67,50,29.56,29.44,3,0,4,0.00
2013-9-24,68.7,52.4,39.9,48.8,42.9,35.4,88,72,48,29.56,29.39,3,0,3,0.00
2013-9-25,69.3,55.0,44.6,54.1,47.2,40.7,88,76,54,29.50,29.42,2,0,2,0.00
2013-9-26,68.2,58.2,50.4,56.7,52.4,46.6,92,82,62,29.65,29.47,2,0,2,0.00
2013-9-27,63.3,54.8,47.3,55.6,50.4,45.1,95,85,72,29.80,29.65,1,0,1,0.00
2013-9-28,72.0,57.7,48.4,58.8,52.1,46.5,96,83,58,29.86,29.77,2,0,3,0.00
2013-9-29,68.0,55.4,48.0,59.3,50.8,45.8,96,85,66,29.77,29.62,1,0,2,0.00
2013-9-30,71.1,55.6,46.0,58.3,50.2,44.1,97,83,60,29.62,29.50,2,0,2,0.00
2013-10-1,76.5,60.0,41.3,61.2,54.1,31.5,95,82,38,29.97,29.44,2,0,3,24.14
2013-10-2,79.3,63.3,51.8,65.3,57.7,49.8,97,83,61,29.56,29.44,3,0,4,0.00
2013-10-3,74.8,61.3,50.4,60.0,55.0,48.1,95,81,54,29.65,29.56,2,0,3,0.00
2013-10-4,79.9,64.8,55.6,71.9,61.5,53.5,95,89,73,29.62,29.53,2,0,3,0.00
2013-10-5,75.7,65.2,60.6,67.8,61.7,58.8,94,89,75,29.65,29.59,1,0,2,0.00
2013-10-6,63.9,62.4,61.2,62.4,61.3,60.0,98,96,94,29.68,29.62,2,0,2,0.00
2013-10-7,72.3,65.5,56.5,70.8,64.6,55.6,98,97,93,29.62,29.36,4,0,6,0.38
2013-10-8,65.1,53.8,46.0,55.6,47.6,43.6,98,81,51,29.86,29.53,3,0,4,0.00
2013-10-9,62.2,51.4,43.3,49.5,45.4,40.9,93,81,59,29.95,29.83,2,0,3,0.00
2013-10-10,63.5,54.4,41.3,56.5,49.6,31.5,90,84,38,29.97,29.65,2,0,4,24.52
2013-10-11,68.4,60.7,54.1,60.7,55.5,50.3,88,83,74,29.68,29.56,2,0,4,0.00
2013-10-12,71.4,60.9,54.0,55.7,50.6,45.9,83,70,51,29.86,29.65,3,0,4,0.00
2013-10-13,64.8,54.9,46.6,52.4,47.9,43.2,91,78,64,29.92,29.83,2,0,4,0.00
2013-10-14,64.2,52.0,41.7,52.8,46.1,38.7,95,81,64,29.92,29.77,2,0,2,0.00
2013-10-15,69.3,54.2,45.7,56.9,46.3,40.2,96,77,46,29.80,29.65,2,0,2,0.00
2013-10-16,64.8,55.3,45.5,54.6,49.6,40.3,91,82,68,29.65,29.47,0,0,1,0.00
2013-10-17,72.5,62.9,57.2,63.7,59.0,54.6,95,87,70,29.47,29.27,4,0,4,0.03
2013-10-18,66.2,58.5,45.7,61.3,48.4,38.9,96,71,46,29.50,29.24,5,1,6,0.00
2013-10-19,63.0,51.2,39.9,50.8,43.3,31.5,91,75,38,29.97,29.30,2,0,3,24.55
2013-10-20,61.2,51.8,40.6,51.3,40.5,31.9,90,67,44,29.59,29.27,4,1,7,0.00
2013-10-21,66.7,50.3,38.1,45.0,38.1,32.6,87,65,43,29.65,29.50,4,0,5,0.00
2013-10-22,66.7,50.0,39.4,52.7,42.0,34.7,93,75,52,29.50,29.27,4,0,5,0.00
2013-10-23,52.9,44.1,34.9,40.3,34.6,31.1,89,71,51,29.33,29.12,2,0,3,0.00
2013-10-24,53.2,43.1,34.7,33.1,29.3,21.2,78,60,38,29.97,29.24,5,1,6,24.55
2013-10-25,51.4,40.9,32.7,32.8,26.3,22.6,71,56,44,29.74,29.47,5,1,5,0.00
2013-10-26,54.0,41.3,28.8,33.7,27.3,22.5,85,60,40,29.71,29.44,8,1,9,0.00
2013-10-27,57.0,45.7,35.1,35.4,29.7,22.3,76,55,39,29.62,29.36,6,1,8,0.00
2013-10-28,60.6,45.3,30.6,38.4,29.5,23.1,79,56,39,29.86,29.62,5,1,7,0.00
2013-10-29,51.8,42.6,34.9,31.4,25.7,21.9,64,51,44,29.92,29.83,3,0,3,0.00
2013-10-30,56.8,44.9,34.7,45.0,35.2,24.1,82,69,61,29.86,29.71,3,0,4,0.00
2013-10-31,62.2,51.5,38.1,57.3,48.0,33.7,94,88,82,29.77,29.39,5,0,5,0.06
2013-11-1,66.7,61.1,49.1,61.8,56.3,46.0,95,85,63,29.39,29.09,6,1,6,0.08
2013-11-2,66.9,51.7,43.2,52.2,45.2,39.1,95,80,51,29.33,29.15,4,0,4,0.00
2013-11-3,49.8,41.5,32.2,40.3,30.7,17.4,90,66,38,29.97,29.33,4,1,6,24.72
2013-11-4,48.4,35.2,28.6,26.5,17.7,13.6,55,49,40,30.15,29.92,3,0,3,0.00
2013-11-5,53.1,40.5,29.1,37.0,27.9,16.2,75,61,51,30.15,30.01,3,0,4,0.00
2013-11-6,60.6,48.6,36.3,50.6,40.2,31.2,90,74,56,30.01,29.59,3,0,7,0.00
2013-11-7,62.1,52.9,35.8,57.0,48.7,29.5,92,86,68,29.59,29.27,6,1,8,0.14
2013-11-8,48.7,39.7,32.0,30.7,26.8,19.3,85,61,45,29.68,29.42,6,2,10,0.00
2013-11-9,47.1,39.6,29.5,29.8,25.8,20.8,73,58,48,29.80,29.50,4,1,5,0.00
2013-11-10,59.9,46.3,39.9,38.3,31.9,27.0,71,57,41,29.53,29.33,7,2,10,0.03
2013-11-11,52.5,45.6,34.3,31.2,26.8,20.2,58,48,42,29.68,29.47,6,1,6,0.00
2013-11-12,49.1,35.4,25.9,30.3,21.6,12.0,72,58,46,29.74,29.44,5,1,5,0.08
2013-11-13,37.0,27.4,19.2,18.7,12.9,9.8,68,54,42,29.80,29.71,5,1,6,0.00
2013-11-14,50.7,36.5,23.2,26.0,18.0,12.6,64,48,33,29.74,29.59,6,1,8,0.00
2013-11-15,58.8,38.6,26.2,33.3,20.8,13.2,60,50,36,29.74,29.65,3,0,3,0.05
2013-11-16,59.9,48.8,36.9,49.3,39.4,29.7,89,71,36,29.83,29.77,0,0,0,0.00
2013-11-17,58.1,51.6,37.0,57.5,50.2,34.1,98,95,89,29.80,29.36,0,0,0,0.00
2013-11-18,60.4,59.8,56.7,59.5,54.1,52.8,98,82,77,29.36,29.15,0,0,0,0.00
2013-11-19,60.4,60.4,60.4,53.2,53.2,53.2,77,77,77,29.83,29.30,0,0,0,0.00
2013-11-20,60.4,60.4,60.4,53.2,53.2,53.2,77,77,77,30.09,29.80,0,0,0,0.00
2013-11-21,60.4,60.4,60.4,53.2,53.2,53.2,77,77,77,30.09,29.89,0,0,0,0.00
2013-11-22,60.4,60.4,60.4,53.2,53.2,53.2,77,77,77,29.89,29.42,0,0,0,0.00
2013-11-23,70.0,51.3,27.3,53.2,39.4,8.3,77,65,35,29.53,29.39,1,0,0,0.00
2013-11-24,41.3,23.6,20.8,31.5,1.7,-17.1,47,38,13,29.97,29.44,1,0,0,0.00
2013-11-25,41.3,30.2,27.3,31.5,9.9,7.3,43,42,38,29.97,29.77,1,0,0,0.00
2013-11-26,38.3,34.1,30.7,32.7,18.5,9.9,86,55,41,29.80,29.39,0,0,0,0.00
2013-11-27,41.3,40.3,36.5,32.7,31.7,31.5,86,48,38,29.97,28.80,1,0,0,0.00
2013-11-28,41.3,41.3,41.3,31.5,31.5,31.5,38,38,38,29.92,29.18,0,0,0,0.00
2013-11-29,56.3,35.0,21.0,34.0,24.0,13.0,72,48,38,30.74,29.89,9,1,17,0.11
2013-11-30,32.0,24.9,14.0,19.0,11.6,6.0,81,59,34,30.79,30.40,7,2,0,0.07
2013-12-1,47.0,36.5,30.0,32.0,26.6,19.0,85,68,56,30.40,30.04,5,1,0,0.17
2013-12-2,42.0,32.9,27.0,32.0,28.4,24.0,93,84,67,30.03,29.91,5,0,0,0.31
2013-12-3,49.0,33.4,25.0,34.0,27.4,21.0,97,80,52,30.02,29.89,7,2,0,0.44
2013-12-4,51.0,36.3,25.0,34.0,28.3,21.0,89,74,50,30.17,30.02,6,1,0,0.00
2013-12-5,56.0,49.4,41.0,52.0,45.8,34.0,97,88,73,30.17,29.96,8,3,0,0.01
2013-12-6,55.0,44.5,35.0,54.0,39.3,29.0,96,82,70,30.16,29.89,13,6,18,0.43
2013-12-7,37.0,33.7,28.0,28.0,24.3,15.0,82,69,54,30.53,30.12,13,5,0,0.04
2013-12-8,30.0,27.0,19.0,23.0,15.9,13.0,85,63,56,30.61,30.42,8,4,0,0.01
2013-12-9,34.0,31.0,27.0,31.0,27.3,21.0,93,87,80,30.43,29.95,10,6,0,0.09
2013-12-10,34.0,30.4,25.0,29.0,24.8,12.0,92,80,58,30.09,29.85,9,5,0,0.13
2013-12-11,31.0,25.8,21.0,17.0,12.4,10.0,68,57,49,30.28,30.09,13,7,22,0.00
2013-12-12,18.0,15.6,11.0,5.0,3.9,3.0,77,61,52,30.24,30.16,7,5,0,0.00
2013-12-13,32.0,24.8,17.0,16.0,8.5,2.0,66,50,42,30.35,30.09,16,8,22,0.00
2013-12-14,23.0,18.6,15.0,16.0,10.8,8.0,86,72,55,30.54,29.93,17,9,23,0.11
2013-12-15,37.0,29.2,19.0,27.0,21.9,15.0,86,75,56,29.93,29.52,16,8,24,0.18
2013-12-16,30.0,23.1,8.0,17.0,7.6,2.0,77,53,37,30.22,29.79,13,7,21,0.00
2013-12-17,21.0,14.5,4.0,16.0,8.7,-1.0,86,78,71,30.25,29.97,9,4,0,0.17
2013-12-18,34.0,25.2,12.0,18.0,14.9,7.0,80,66,50,30.15,29.94,12,5,21,0.00
2013-12-19,43.0,31.1,17.0,26.0,19.4,11.0,82,64,40,30.17,30.02,16,5,21,0.00
2013-12-20,49.0,39.1,27.0,31.0,26.6,23.0,85,64,43,30.12,29.97,7,3,0,0.00
2013-12-21,58.0,49.0,41.0,45.0,38.1,31.0,86,67,53,30.00,29.90,9,4,0,0.00
2013-12-22,68.0,62.4,54.0,59.0,54.4,48.0,84,75,63,29.96,29.80,20,12,33,0.00
2013-12-23,60.0,51.0,36.0,54.0,46.6,28.0,94,84,73,30.14,29.91,16,5,24,0.77
2013-12-24,36.0,31.7,26.0,28.0,19.8,9.0,80,62,46,30.30,30.10,16,8,24,0.00
2013-12-25,25.0,21.4,16.0,10.0,4.4,1.0,63,49,39,30.52,30.31,16,5,20,0.00
2013-12-26,32.0,25.6,20.0,22.0,17.3,9.0,85,71,55,30.45,30.16,13,2,16,0.00
2013-12-27,37.0,28.5,18.0,20.0,16.7,13.0,81,63,43,30.34,30.25,12,5,17,0.00
2013-12-28,50.0,34.4,24.0,24.0,20.9,18.0,78,60,33,30.28,30.06,15,5,23,0.00
2013-12-29,43.0,36.1,28.0,37.0,30.4,22.0,93,80,57,30.07,29.45,12,3,20,1.03
2013-12-30,40.0,32.1,17.0,34.0,22.5,6.0,93,69,48,30.21,29.67,12,7,20,0.00
2013-12-31,28.0,21.3,15.0,18.0,8.6,3.0,69,59,41,30.25,30.06,14,6,23,0.00
2014-1-1,30.0,23.9,18.0,14.0,7.6,3.0,57,50,42,30.40,30.25,12,6,17,0.00